Time;durP1;ratioP1;P1;durP2;ratioP2;P2;SDS_P1;SDS_P2;PMS_P1;PMS_P2;Temp;Humidity;BMP_temperature;BMP_pressure;BME280_temperature;BME280_humidity;BME280_pressure;Samples;Min_cycle;Max_cycle;Signal;HPM_P1;HPM_P2
2022/07/12 00:01:04;;;;;;;1.98;0.70;;;;;;;24.22;27.44;99001.91;4937385;29;20032;-78
2022/07/12 00:03:30;;;;;;;2.17;0.70;;;;;;;24.18;27.90;98998.03;4937238;29;20041;-77
2022/07/12 00:05:56;;;;;;;1.77;0.70;;;;;;;24.18;27.81;98990.03;4921235;29;20031;-77
2022/07/12 00:08:21;;;;;;;1.35;0.65;;;;;;;24.15;27.84;98995.75;4936912;29;20479;-78
2022/07/12 00:10:47;;;;;;;1.27;0.63;;;;;;;24.20;27.98;99007.44;4920628;29;20039;-77
2022/07/12 00:13:12;;;;;;;1.75;0.70;;;;;;;24.24;27.93;99001.72;4920615;29;20035;-77
2022/07/12 00:15:38;;;;;;;1.17;0.60;;;;;;;24.19;27.76;98997.81;4937078;29;20464;-77
2022/07/12 00:18:03;;;;;;;1.63;0.70;;;;;;;24.15;27.98;98996.56;4937013;29;20054;-77
2022/07/12 00:20:29;;;;;;;2.53;0.90;;;;;;;24.14;28.34;99002.91;4936969;29;20047;-77
2022/07/12 00:22:55;;;;;;;2.20;0.80;;;;;;;24.10;28.13;98995.50;4952983;29;20028;-79
2022/07/12 00:25:21;;;;;;;1.77;0.63;;;;;;;24.08;28.09;99000.22;4936665;29;20035;-78
2022/07/12 00:27:46;;;;;;;3.80;0.60;;;;;;;24.06;27.96;98995.09;4952762;28;20023;-77
2022/07/12 00:30:12;;;;;;;2.47;0.70;;;;;;;24.08;27.99;99005.56;4937027;29;20046;-77
2022/07/12 00:32:37;;;;;;;1.60;0.60;;;;;;;24.05;28.13;99001.44;4937004;29;20046;-77
2022/07/12 00:35:04;;;;;;;1.38;0.60;;;;;;;23.99;28.13;98997.72;4920700;29;20067;-77
2022/07/12 00:37:29;;;;;;;1.02;0.63;;;;;;;23.95;28.28;98998.31;4936648;29;20114;-77
2022/07/12 00:39:55;;;;;;;2.47;0.70;;;;;;;23.93;28.56;99013.69;4936791;29;20039;-77
2022/07/12 00:42:20;;;;;;;1.48;0.60;;;;;;;23.88;28.70;99019.63;4936231;29;20063;-78
2022/07/12 00:44:46;;;;;;;1.80;0.68;;;;;;;23.83;29.12;99009.53;4920570;29;20479;-78
2022/07/12 00:47:24;;;;;;;2.33;0.85;;;;;;;23.74;29.11;99000.00;4952704;28;20042;-77
2022/07/12 00:49:50;;;;;;;2.00;0.90;;;;;;;23.70;29.26;99009.41;4940341;29;20118;-77
2022/07/12 00:52:15;;;;;;;1.55;0.70;;;;;;;23.70;29.59;99013.94;4923791;29;20471;-77
2022/07/12 00:54:41;;;;;;;2.65;0.70;;;;;;;23.64;29.55;99007.53;4923980;29;20039;-77
2022/07/12 00:57:07;;;;;;;1.85;0.60;;;;;;;23.61;29.70;99013.25;4940490;29;20035;-77
2022/07/12 00:59:32;;;;;;;1.70;0.95;;;;;;;23.58;29.68;99014.47;4957162;29;20399;-77
2022/07/12 01:01:58;;;;;;;3.42;1.00;;;;;;;23.55;29.70;99017.53;4939426;29;20133;-77
2022/07/12 01:04:24;;;;;;;1.33;0.70;;;;;;;23.52;29.92;99012.59;4939470;29;20430;-78
2022/07/12 01:06:50;;;;;;;1.85;0.60;;;;;;;23.48;29.89;99019.31;4939249;29;20046;-77
2022/07/12 01:09:15;;;;;;;1.88;0.68;;;;;;;23.43;30.22;99013.75;4939794;29;20043;-77
2022/07/12 01:11:41;;;;;;;2.75;0.68;;;;;;;23.39;30.28;99017.78;4939628;29;20105;-77
2022/07/12 01:14:06;;;;;;;2.80;0.85;;;;;;;23.40;30.12;99017.59;4923442;29;20035;-77
2022/07/12 01:16:32;;;;;;;2.00;0.90;;;;;;;23.37;30.32;99015.34;4923805;29;20487;-76
2022/07/12 01:18:57;;;;;;;3.63;0.70;;;;;;;23.35;30.14;99016.56;4923779;29;20088;-77
2022/07/12 01:21:23;;;;;;;1.77;1.00;;;;;;;23.36;30.24;99020.88;4939061;29;20047;-77
2022/07/12 01:23:49;;;;;;;1.48;0.70;;;;;;;23.30;30.07;99012.63;4938922;29;20039;-77
2022/07/12 01:26:15;;;;;;;4.07;0.73;;;;;;;23.24;30.17;99012.56;4923563;29;20475;-78
2022/07/12 01:28:40;;;;;;;1.73;0.77;;;;;;;23.19;30.17;99015.81;4939402;29;20031;-77
2022/07/12 01:31:06;;;;;;;2.22;0.65;;;;;;;23.18;30.52;99019.47;4939356;29;20102;-78
2022/07/12 01:33:32;;;;;;;2.70;0.80;;;;;;;23.15;30.53;99013.72;4955491;29;20073;-77
2022/07/12 01:35:57;;;;;;;1.38;0.60;;;;;;;23.10;30.46;99017.78;4939221;29;20031;-78
2022/07/12 01:38:23;;;;;;;2.35;0.73;;;;;;;23.06;30.55;99015.66;4938933;29;20042;-77
2022/07/12 01:40:48;;;;;;;1.75;0.82;;;;;;;23.05;30.41;99016.69;4939065;29;20134;-77
2022/07/12 01:43:14;;;;;;;0.98;0.60;;;;;;;23.03;30.83;99013.38;4923315;29;20488;-78
2022/07/12 01:45:41;;;;;;;1.35;0.50;;;;;;;23.02;30.46;99020.53;4939061;29;20459;-77
2022/07/12 01:48:06;;;;;;;2.42;0.70;;;;;;;22.99;30.78;99017.44;4939488;29;20086;-77
2022/07/12 01:50:32;;;;;;;10.85;1.08;;;;;;;22.98;30.22;99013.97;4938746;29;20074;-76
2022/07/12 01:52:57;;;;;;;1.85;0.60;;;;;;;22.96;30.73;99015.97;4938819;29;20034;-77
2022/07/12 01:55:23;;;;;;;1.88;0.80;;;;;;;22.94;30.40;99018.84;4923106;29;20035;-77
2022/07/12 01:57:48;;;;;;;2.60;0.60;;;;;;;22.91;30.45;99013.91;4938843;29;20052;-77
2022/07/12 02:00:14;;;;;;;3.78;0.77;;;;;;;22.90;30.43;99022.06;4938639;29;20035;-76
2022/07/12 02:02:40;;;;;;;1.35;0.70;;;;;;;22.91;30.65;99013.06;4938959;29;20046;-76
2022/07/12 02:05:05;;;;;;;1.20;0.52;;;;;;;22.89;30.32;99015.09;4954681;29;20074;-76
2022/07/12 02:07:32;;;;;;;1.00;0.50;;;;;;;22.84;30.61;99013.00;4923200;29;20027;-76
2022/07/12 02:09:57;;;;;;;1.90;0.60;;;;;;;22.84;30.70;99022.84;4938899;29;20398;-76
2022/07/12 02:12:23;;;;;;;1.10;0.60;;;;;;;22.78;30.68;99021.75;4954727;29;20027;-77
2022/07/12 02:14:49;;;;;;;1.73;0.77;;;;;;;22.82;30.95;99020.34;4938682;29;20031;-76
2022/07/12 02:17:14;;;;;;;1.25;0.50;;;;;;;22.81;30.90;99024.03;4938611;29;20450;-76
2022/07/12 02:19:40;;;;;;;2.00;0.70;;;;;;;22.84;30.79;99028.16;4938483;29;20051;-76
2022/07/12 02:22:05;;;;;;;1.10;0.70;;;;;;;22.81;30.58;99023.22;4938359;29;20047;-77
2022/07/12 02:24:30;;;;;;;3.53;0.70;;;;;;;22.79;30.89;99028.72;4955356;29;20059;-77
2022/07/12 02:26:56;;;;;;;2.00;0.60;;;;;;;22.73;30.77;99016.97;4955526;29;20475;-77
2022/07/12 02:29:21;;;;;;;1.13;0.50;;;;;;;22.75;30.65;99030.09;4953939;28;20090;-79
2022/07/12 02:31:47;;;;;;;1.35;0.50;;;;;;;22.74;30.63;99029.28;4954089;29;20411;-77
2022/07/12 02:34:12;;;;;;;5.07;0.57;;;;;;;22.73;30.54;99037.44;4937781;29;20062;-77
2022/07/12 02:36:38;;;;;;;2.20;0.88;;;;;;;22.71;30.93;99031.50;4938192;29;20035;-81
2022/07/12 02:39:04;;;;;;;2.60;0.70;;;;;;;22.70;30.89;99029.84;4955058;29;20035;-76
2022/07/12 02:41:30;;;;;;;2.17;0.75;;;;;;;22.68;30.83;99034.53;4965888;28;20055;-75
2022/07/12 02:43:56;;;;;;;2.05;0.63;;;;;;;22.64;30.93;99039.41;4940777;28;20399;-75
2022/07/12 02:46:22;;;;;;;1.65;0.60;;;;;;;22.54;30.59;99030.91;4956041;28;20050;-75
2022/07/12 02:48:47;;;;;;;1.02;0.60;;;;;;;22.55;30.79;99029.88;4940514;28;20491;-75
2022/07/12 02:51:13;;;;;;;2.35;0.55;;;;;;;22.51;30.74;99034.75;4973903;28;20034;-75
2022/07/12 02:53:38;;;;;;;2.20;0.88;;;;;;;22.48;30.79;99029.81;4973993;28;20039;-75
2022/07/12 02:56:04;;;;;;;1.02;0.55;;;;;;;22.46;30.85;99033.69;4974013;28;20031;-75
2022/07/12 02:58:30;;;;;;;1.27;0.70;;;;;;;22.38;31.24;99022.13;4973952;28;20035;-75
2022/07/12 03:00:55;;;;;;;2.65;0.70;;;;;;;22.37;31.33;99019.66;4956999;28;20030;-76
2022/07/12 03:03:21;;;;;;;1.38;0.60;;;;;;;22.38;31.38;99027.44;4972758;28;20033;-75
2022/07/12 03:05:46;;;;;;;1.70;0.60;;;;;;;22.43;31.18;99029.53;4956695;28;20479;-75
2022/07/12 03:08:12;;;;;;;2.45;0.70;;;;;;;22.55;31.05;99028.06;4957144;28;20034;-79
2022/07/12 03:10:38;;;;;;;2.15;0.77;;;;;;;22.51;31.36;99029.44;4956212;28;20464;-80
2022/07/12 03:13:03;;;;;;;1.90;0.80;;;;;;;23.03;32.05;99032.03;4973897;28;20027;-75
2022/07/12 03:15:29;;;;;;;0.95;0.55;;;;;;;23.58;30.95;99033.13;4972690;28;20097;-71
2022/07/12 03:17:55;;;;;;;2.20;0.82;;;;;;;24.31;29.57;99034.59;4956792;28;20077;-80
2022/07/12 03:20:21;;;;;;;1.52;0.60;;;;;;;24.56;29.27;99034.88;4956879;28;20034;-77
2022/07/12 03:22:48;;;;;;;2.00;0.52;;;;;;;24.92;29.11;99031.09;4956275;28;20034;-76
2022/07/12 03:25:14;;;;;;;2.92;0.70;;;;;;;25.55;28.33;99035.25;4955481;28;20041;-77
2022/07/12 03:27:40;;;;;;;2.58;0.68;;;;;;;26.28;27.38;99032.44;4938788;28;20038;-72
2022/07/12 03:30:05;;;;;;;4.10;0.60;;;;;;;26.97;26.12;99034.56;4972486;28;20042;-81
2022/07/12 03:32:31;;;;;;;4.40;0.70;;;;;;;27.63;25.21;99035.91;4972945;28;20065;-76
2022/07/12 03:34:56;;;;;;;3.10;0.60;;;;;;;28.30;24.37;99032.53;4955144;28;20027;-79
2022/07/12 03:37:22;;;;;;;11.55;1.00;;;;;;;29.02;24.11;99047.91;4939395;28;20498;-74
2022/07/12 03:39:47;;;;;;;12.05;0.88;;;;;;;29.62;22.36;99040.75;4955120;28;20038;-83
2022/07/12 03:42:13;;;;;;;3.30;0.77;;;;;;;29.92;21.29;99030.72;4938680;28;20498;-82
2022/07/12 03:44:38;;;;;;;3.00;0.95;;;;;;;30.25;20.38;99044.56;4939231;28;20034;-81
2022/07/12 03:47:04;;;;;;;3.15;0.82;;;;;;;30.58;20.38;99041.19;4972148;28;20122;-82
2022/07/12 03:49:30;;;;;;;4.85;0.70;;;;;;;30.95;20.00;99050.75;4955097;28;20039;-82
2022/07/12 03:51:55;;;;;;;3.90;0.80;;;;;;;31.29;19.41;99057.00;4971497;28;20027;-80
2022/07/12 03:54:21;;;;;;;6.00;0.88;;;;;;;31.65;19.19;99048.69;4938455;28;20037;-82
2022/07/12 03:59:30;;;;;;;5.35;0.90;;;;;;;32.47;17.66;99030.84;4957904;28;20422;-80
2022/07/12 04:01:56;;;;;;;4.07;0.77;;;;;;;32.91;17.14;99038.06;4939673;28;20486;-82
2022/07/12 04:04:21;;;;;;;7.47;1.27;;;;;;;33.32;16.75;99047.38;4971264;28;20078;-82
2022/07/12 04:06:47;;;;;;;6.65;1.00;;;;;;;33.62;16.57;99045.94;4972118;28;20058;-82
2022/07/12 04:09:12;;;;;;;5.72;1.08;;;;;;;34.04;16.00;99049.72;4972374;28;20031;-82
2022/07/12 04:11:38;;;;;;;5.03;0.90;;;;;;;34.47;15.72;99044.22;4954612;28;20467;-82
2022/07/12 04:14:03;;;;;;;3.33;1.02;;;;;;;34.82;15.39;99046.19;4974499;28;20410;-80
2022/07/12 04:16:29;;;;;;;5.72;1.25;;;;;;;35.22;15.39;99055.44;4972106;28;20462;-81
2022/07/12 04:18:55;;;;;;;8.45;1.23;;;;;;;35.60;15.32;99053.25;4972251;28;20023;-84
2022/07/12 04:21:21;;;;;;;5.07;1.25;;;;;;;36.18;14.59;99057.44;4954821;28;20121;-82
2022/07/12 04:23:47;;;;;;;4.80;1.20;;;;;;;36.60;14.43;99049.94;4974985;28;20038;-82
2022/07/12 04:26:12;;;;;;;4.40;1.00;;;;;;;37.04;14.16;99049.94;4957781;28;20047;-83
2022/07/12 04:28:38;;;;;;;13.65;1.38;;;;;;;37.41;13.86;99055.88;4946983;28;20042;-81
2022/07/12 04:31:03;;;;;;;3.58;1.45;;;;;;;37.87;13.75;99060.06;4994782;28;20425;-82
2022/07/12 04:33:29;;;;;;;4.40;1.13;;;;;;;38.28;13.67;99057.69;4994217;28;20030;-82
2022/07/12 04:35:54;;;;;;;5.82;1.20;;;;;;;38.62;13.64;99058.63;4994770;28;20470;-84
2022/07/12 04:38:20;;;;;;;4.28;1.00;;;;;;;39.04;12.98;99057.69;4978759;28;20383;-82
2022/07/12 04:40:45;;;;;;;4.03;0.90;;;;;;;39.49;12.57;99059.13;4973005;28;20049;-83
2022/07/12 04:43:11;;;;;;;2.85;0.80;;;;;;;39.90;12.32;99061.13;4943407;28;20043;-83
2022/07/12 04:45:36;;;;;;;3.58;0.75;;;;;;;40.28;12.24;99063.63;4942267;28;20035;-83
2022/07/12 04:48:02;;;;;;;2.63;0.70;;;;;;;40.67;11.80;99062.25;4959032;28;20066;-83
2022/07/12 04:50:27;;;;;;;3.58;0.63;;;;;;;41.17;11.44;99055.91;4943030;28;20026;-84
2022/07/12 04:52:53;;;;;;;3.58;0.63;;;;;;;41.59;11.16;99065.50;4959075;28;20402;-84
2022/07/12 04:55:18;;;;;;;1.58;0.55;;;;;;;42.05;10.71;99068.09;4942191;28;20100;-84
2022/07/12 04:57:44;;;;;;;1.42;0.40;;;;;;;42.39;10.52;99061.09;4976687;28;20038;-84
2022/07/12 05:00:10;;;;;;;2.17;0.50;;;;;;;42.68;10.28;99059.66;4976105;28;20127;-84
2022/07/12 05:02:36;;;;;;;2.67;0.60;;;;;;;43.10;9.44;99068.22;4958875;28;20504;-84
2022/07/12 05:05:01;;;;;;;2.30;0.70;;;;;;;43.76;9.26;99067.03;4958022;28;20129;-84
2022/07/12 05:07:26;;;;;;;1.40;0.50;;;;;;;44.28;9.13;99061.28;4941009;29;20047;-83
2022/07/12 05:09:52;;;;;;;3.57;0.60;;;;;;;44.89;8.76;99074.59;4955794;29;20086;-85
2022/07/12 05:12:18;;;;;;;4.57;0.50;;;;;;;42.06;10.11;99067.75;4940377;29;20476;-84
2022/07/12 05:14:43;;;;;;;2.93;1.00;;;;;;;41.66;10.68;99065.03;4956837;29;20072;-85
2022/07/12 05:17:09;;;;;;;2.38;1.20;;;;;;;42.76;9.99;99067.09;4939675;29;20042;-83
2022/07/12 05:19:35;;;;;;;3.33;1.73;;;;;;;43.44;9.50;99061.84;4942839;28;20050;-84
2022/07/12 05:22:02;;;;;;;4.77;1.60;;;;;;;43.33;9.30;99061.38;4939344;28;20065;-82
2022/07/12 05:24:27;;;;;;;;;;;;;;;44.47;8.66;99069.09;4973381;28;20055;-85
2022/07/12 05:26:53;;;;;;;4.72;1.30;;;;;;;45.26;8.25;99072.00;4966433;28;19972;-83
2022/07/12 05:29:19;;;;;;;3.40;1.40;;;;;;;45.91;7.87;99073.34;4956043;28;20041;-85
2022/07/12 05:31:44;;;;;;;2.90;1.27;;;;;;;45.91;7.56;99065.91;4976021;28;20027;-83
2022/07/12 05:34:10;;;;;;;5.93;1.43;;;;;;;45.98;7.67;99063.34;4942094;28;20078;-83
2022/07/12 05:36:35;;;;;;;2.77;1.60;;;;;;;45.74;7.32;99063.31;4942965;28;20051;-84
2022/07/12 05:39:01;;;;;;;3.23;1.07;;;;;;;45.17;7.86;99068.53;4943427;28;20069;-84
2022/07/12 05:41:26;;;;;;;3.40;1.40;;;;;;;45.29;7.81;99079.56;4955396;28;20518;-80
2022/07/12 05:43:52;;;;;;;5.80;1.20;;;;;;;45.61;8.09;99070.78;4955687;28;20045;-83
2022/07/12 05:46:17;;;;;;;7.57;1.30;;;;;;;44.45;8.44;99076.88;4949153;28;20129;-77
2022/07/12 05:48:43;;;;;;;4.03;1.20;;;;;;;45.39;7.89;99081.13;4929238;28;20078;-79
2022/07/12 05:53:52;;;;;;;3.38;1.20;;;;;;;46.73;6.94;99072.28;4962224;28;20573;-77
2022/07/12 05:56:17;;;;;;;4.47;1.13;;;;;;;47.08;6.75;99075.28;4954866;28;20039;-77
2022/07/12 05:58:43;;;;;;;4.03;1.03;;;;;;;47.49;6.59;99080.66;4972626;28;20023;-77
2022/07/12 06:01:08;;;;;;;4.97;0.93;;;;;;;47.69;6.32;99073.31;4973802;28;20486;-77
2022/07/12 06:03:34;;;;;;;4.50;0.90;;;;;;;47.96;6.20;99079.84;4957695;28;20027;-77
2022/07/12 06:05:59;;;;;;;5.53;1.07;;;;;;;48.12;5.84;99067.97;4940584;28;20042;-78
2022/07/12 06:08:25;;;;;;;3.90;1.00;;;;;;;48.22;6.22;99078.50;4940805;28;20418;-81
2022/07/12 06:10:51;;;;;;;2.37;0.70;;;;;;;48.34;5.94;99072.81;4940283;28;20035;-80
2022/07/12 06:13:16;;;;;;;1.37;0.60;;;;;;;48.37;5.83;99074.06;4956443;28;20277;-84
2022/07/12 06:15:42;;;;;;;3.43;0.50;;;;;;;48.42;5.80;99079.34;4957166;28;20038;-84
2022/07/12 06:18:07;;;;;;;1.20;0.60;;;;;;;48.46;5.83;99083.00;4933408;28;20613;-75
2022/07/12 06:20:33;;;;;;;10.87;0.87;;;;;;;48.24;6.51;99081.69;4921188;29;20043;-76
2022/07/12 06:22:59;;;;;;;5.85;0.50;;;;;;;48.25;6.52;99080.50;4921114;29;20120;-82
2022/07/12 06:25:24;;;;;;;10.23;0.60;;;;;;;48.21;6.27;99070.56;4930742;28;20126;-78
2022/07/12 06:27:50;;;;;;;6.70;0.53;;;;;;;48.28;5.70;99073.47;4940383;28;20494;-84
2022/07/12 06:30:19;;;;;;;3.00;0.60;;;;;;;48.27;6.00;99072.69;4969357;28;20043;-88
2022/07/12 06:32:46;;;;;;;3.35;0.60;;;;;;;48.29;5.58;99073.09;4960932;28;20044;-88
2022/07/12 06:35:11;;;;;;;;;;;;;;;48.02;5.85;99074.84;4942406;28;20042;-86
2022/07/12 06:37:36;;;;;;;4.30;0.60;;;;;;;48.06;5.97;99069.44;4975983;28;20297;-87
2022/07/12 06:40:02;;;;;;;3.77;0.70;;;;;;;47.93;5.82;99063.19;4956825;28;20816;-88
2022/07/12 06:42:28;;;;;;;3.47;0.60;;;;;;;47.86;5.91;99063.81;4958259;28;20104;-87
2022/07/12 06:44:54;;;;;;;3.97;0.40;;;;;;;47.74;6.22;99064.72;4956822;28;20039;-87
2022/07/12 06:47:20;;;;;;;3.87;0.70;;;;;;;47.73;6.27;99060.38;4956942;28;20043;-86
2022/07/12 06:49:45;;;;;;;2.73;0.50;;;;;;;47.62;5.89;99059.25;4939692;28;20043;-84
2022/07/12 06:52:11;;;;;;;1.50;0.40;;;;;;;47.48;6.05;99055.00;4974278;28;20031;-87
2022/07/12 06:54:37;;;;;;;2.80;0.57;;;;;;;47.42;6.31;99055.63;4960923;28;20051;-86
2022/07/12 06:57:02;;;;;;;2.30;0.50;;;;;;;47.30;6.22;99062.03;4941132;28;20034;-86
2022/07/12 06:59:28;;;;;;;1.07;0.40;;;;;;;47.20;6.32;99046.75;4957267;28;20038;-86
2022/07/12 07:01:55;;;;;;;8.53;0.70;;;;;;;47.12;6.43;99056.03;4956075;28;20031;-79
2022/07/12 07:04:21;;;;;;;1.30;0.50;;;;;;;47.01;6.36;99050.22;4956427;28;20026;-86
2022/07/12 07:06:47;;;;;;;1.80;0.43;;;;;;;46.87;7.04;99056.13;4958117;28;20030;-85
2022/07/12 07:09:14;;;;;;;3.87;0.57;;;;;;;46.74;6.50;99062.88;4972389;28;20030;-82
2022/07/12 07:11:40;;;;;;;2.95;0.40;;;;;;;46.61;6.60;99053.84;4972589;28;20041;-77
2022/07/12 07:14:05;;;;;;;2.83;0.50;;;;;;;46.55;6.75;99052.47;4955229;28;20039;-77
2022/07/12 07:16:31;;;;;;;3.70;0.70;;;;;;;46.15;8.81;99058.72;4955449;28;20424;-82
2022/07/12 07:18:58;;;;;;;2.33;0.70;;;;;;;45.86;8.07;99046.81;4956554;28;20047;-81
2022/07/12 07:21:24;;;;;;;2.35;0.50;;;;;;;45.77;7.63;99051.63;4972219;28;20042;-87
2022/07/12 07:23:50;;;;;;;5.97;0.70;;;;;;;45.68;7.72;99054.50;4939043;28;20446;-74
2022/07/12 07:26:15;;;;;;;3.40;0.60;;;;;;;45.56;7.60;99043.44;4953360;28;20101;-75
2022/07/12 07:31:25;;;;;;;0.88;0.38;;;;;;;45.34;7.86;99056.47;4952133;28;20058;-74
2022/07/12 07:33:50;;;;;;;3.53;0.60;;;;;;;45.28;7.74;99057.88;4952758;29;20035;-76
2022/07/12 07:36:16;;;;;;;1.43;0.50;;;;;;;45.25;7.55;99055.81;4952186;28;20034;-75
2022/07/12 07:38:41;;;;;;;2.00;0.50;;;;;;;45.11;7.15;99059.66;4953016;28;20019;-74
2022/07/12 07:41:07;;;;;;;1.30;0.50;;;;;;;45.05;7.11;99066.53;4951777;28;20051;-75
2022/07/12 07:43:33;;;;;;;1.50;0.47;;;;;;;44.90;7.15;99056.13;4972170;28;20101;-75
2022/07/12 07:45:59;;;;;;;1.27;0.40;;;;;;;44.79;6.92;99059.31;4923100;28;20073;-75
2022/07/12 07:48:24;;;;;;;4.30;0.50;;;;;;;44.65;6.93;99056.03;4955476;28;20062;-74
2022/07/12 07:50:50;;;;;;;3.07;0.60;;;;;;;44.29;9.48;99060.16;4954701;28;20054;-74
2022/07/12 07:53:15;;;;;;;1.33;0.63;;;;;;;43.99;9.52;99064.88;4922191;28;20209;-76
2022/07/12 07:55:41;;;;;;;7.07;1.03;;;;;;;43.45;10.26;99059.91;4941565;28;20050;-76
2022/07/12 07:58:06;;;;;;;9.27;0.80;;;;;;;42.89;11.22;99057.06;4922657;29;20142;-73
2022/07/12 08:00:32;;;;;;;7.50;1.20;;;;;;;42.64;12.02;99062.25;4944741;28;20126;-75
2022/07/12 08:02:58;;;;;;;10.50;1.07;;;;;;;42.50;10.86;99058.84;4942086;28;20043;-73
2022/07/12 08:05:23;;;;;;;4.72;0.95;;;;;;;42.56;11.23;99054.81;4925861;28;20038;-75
2022/07/12 08:07:49;;;;;;;5.75;0.75;;;;;;;42.70;10.67;99054.66;4941421;28;20057;-73
2022/07/12 08:10:15;;;;;;;2.90;0.50;;;;;;;42.72;10.10;99060.66;4975552;28;20042;-71
2022/07/12 08:12:40;;;;;;;5.35;0.77;;;;;;;42.71;9.46;99048.06;4958240;28;20422;-72
2022/07/12 08:15:06;;;;;;;4.00;0.60;;;;;;;42.68;9.48;99051.44;4947258;28;20125;-71
2022/07/12 08:17:32;;;;;;;3.00;0.57;;;;;;;42.69;9.51;99053.84;4947253;28;20588;-72
2022/07/12 08:19:58;;;;;;;2.25;0.60;;;;;;;42.62;9.32;99035.16;4964167;28;20079;-72
2022/07/12 08:22:23;;;;;;;1.87;0.40;;;;;;;42.58;9.01;99030.63;4962508;28;20035;-73
2022/07/12 08:24:49;;;;;;;1.17;0.43;;;;;;;42.57;9.08;99045.47;4956356;28;20030;-72
2022/07/12 08:27:16;;;;;;;3.60;0.50;;;;;;;42.39;11.14;99045.44;4960305;28;20116;-70
2022/07/12 08:29:41;;;;;;;3.25;0.55;;;;;;;42.30;10.16;99044.59;4959481;28;20705;-70
2022/07/12 08:32:07;;;;;;;3.33;0.63;;;;;;;42.25;9.92;99034.59;4959302;28;20038;-71
2022/07/12 08:34:33;;;;;;;3.40;0.52;;;;;;;42.20;9.46;99031.22;4975154;28;20027;-71
2022/07/12 08:36:59;;;;;;;1.05;0.47;;;;;;;42.15;9.80;99042.31;4943284;28;20129;-72
2022/07/12 08:39:24;;;;;;;2.13;0.40;;;;;;;42.11;10.12;99033.91;4942934;28;20039;-77
2022/07/12 08:41:50;;;;;;;2.90;0.60;;;;;;;42.06;9.80;99029.38;4956632;28;20159;-71
2022/07/12 08:44:15;;;;;;;3.38;0.70;;;;;;;42.06;9.73;99031.31;4995997;28;20030;-72
2022/07/12 08:46:41;;;;;;;3.33;0.43;;;;;;;41.68;9.74;99034.56;4978315;28;20043;-70
2022/07/12 08:49:07;;;;;;;1.70;0.47;;;;;;;41.81;9.89;99024.66;4995775;28;20034;-71
2022/07/12 08:51:32;;;;;;;3.27;0.60;;;;;;;41.77;9.97;99013.53;4977786;28;20430;-72
2022/07/12 08:54:08;;;;;;;1.35;0.50;;;;;;;41.79;10.00;99015.94;4977749;28;20292;-71
2022/07/12 08:56:37;;;;;;;2.67;0.50;;;;;;;41.71;9.77;99015.59;4941584;28;20180;-72
2022/07/12 08:59:21;;;;;;;1.52;0.50;;;;;;;41.67;10.20;99022.00;4956870;28;20609;-72
2022/07/12 09:01:51;;;;;;;1.50;0.30;;;;;;;40.87;10.39;99017.22;4942087;28;20031;-72
2022/07/12 09:04:20;;;;;;;3.42;0.60;;;;;;;40.30;10.98;99014.94;4975260;28;20109;-72
2022/07/12 09:06:46;;;;;;;3.45;0.50;;;;;;;39.77;11.32;99011.66;4994235;28;20122;-72
2022/07/12 09:09:12;;;;;;;7.25;0.70;;;;;;;39.52;11.35;99012.09;4943653;28;20117;-72
2022/07/12 09:11:38;;;;;;;2.33;0.70;;;;;;;39.76;11.52;99012.75;4962042;28;20030;-73
2022/07/12 09:14:04;;;;;;;3.03;0.40;;;;;;;39.72;11.38;99011.75;4945999;28;20061;-71
2022/07/12 09:16:30;;;;;;;1.00;0.40;;;;;;;39.51;11.60;99003.13;4961851;28;20073;-72
2022/07/12 09:19:25;;;;;;;0.88;0.30;;;;;;;39.61;11.53;99011.13;4978212;28;20033;-72
2022/07/12 09:21:52;;;;;;;2.10;0.52;;;;;;;39.62;11.31;99004.56;4903182;29;20047;-73
2022/07/12 09:24:18;;;;;;;2.13;0.60;;;;;;;39.51;11.02;98997.66;4902761;29;20035;-72
2022/07/12 09:26:44;;;;;;;2.83;0.50;;;;;;;39.34;11.21;99003.69;4903749;29;20056;-73
2022/07/12 09:29:11;;;;;;;4.28;0.43;;;;;;;39.30;11.11;99004.59;4919047;29;20040;-71
2022/07/12 09:37:18;;;;;;;3.40;0.30;;;;;;;38.37;11.82;98998.69;4908568;29;20050;-72
2022/07/12 09:39:43;;;;;;;1.90;0.40;;;;;;;38.08;12.39;98996.06;4903638;29;20500;-73
2022/07/12 09:42:10;;;;;;;2.67;0.38;;;;;;;38.09;11.74;98985.97;4903071;29;20066;-72
2022/07/12 09:44:36;;;;;;;3.60;0.50;;;;;;;37.97;12.27;98998.09;4918976;29;20046;-72
2022/07/12 09:47:01;;;;;;;2.78;0.50;;;;;;;37.92;12.41;99003.59;4887183;29;20039;-72
2022/07/12 09:49:28;;;;;;;5.07;0.60;;;;;;;37.92;12.86;98989.97;4903268;29;20111;-72
2022/07/12 09:51:56;;;;;;;1.13;0.53;;;;;;;37.90;12.42;98984.03;4887518;29;20043;-71
2022/07/12 09:54:29;;;;;;;2.88;0.60;;;;;;;37.92;12.73;98987.25;4902954;29;20118;-72
2022/07/12 09:56:55;;;;;;;1.90;0.55;;;;;;;37.87;12.86;98984.59;4918671;29;20129;-72
2022/07/12 09:59:23;;;;;;;0.77;0.47;;;;;;;37.74;12.80;98985.31;4958629;28;20791;-72
2022/07/12 10:01:48;;;;;;;1.77;0.50;;;;;;;37.55;12.53;98986.03;4960941;28;20061;-71
2022/07/12 10:04:14;;;;;;;3.38;0.38;;;;;;;37.47;12.50;98987.47;4994345;28;20038;-71
2022/07/12 10:06:39;;;;;;;3.10;0.40;;;;;;;37.44;12.74;98982.63;4976978;28;20434;-71
2022/07/12 10:09:05;;;;;;;1.40;0.50;;;;;;;37.42;12.64;98976.66;4960745;28;20501;-72
2022/07/12 10:11:30;;;;;;;2.03;0.43;;;;;;;37.34;12.93;98976.47;4994186;28;20088;-72
2022/07/12 10:13:56;;;;;;;0.73;0.30;;;;;;;37.29;12.91;98966.44;4994118;28;20061;-72
2022/07/12 10:16:26;;;;;;;1.52;0.32;;;;;;;37.28;12.78;98973.00;4960925;28;20023;-74
2022/07/12 10:19:27;;;;;;;3.13;0.55;;;;;;;37.21;12.77;98970.63;4976835;28;20141;-72
2022/07/12 10:21:56;;;;;;;5.00;0.50;;;;;;;37.18;12.71;98968.44;4976750;28;20355;-71
2022/07/12 10:24:30;;;;;;;1.60;0.40;;;;;;;37.14;12.50;98969.31;4960130;28;20506;-71
2022/07/12 10:27:20;;;;;;;1.63;0.40;;;;;;;37.03;12.67;98966.66;4993760;28;20106;-73
2022/07/12 10:29:46;;;;;;;2.72;0.40;;;;;;;36.92;13.10;98957.78;4988514;28;20042;-72
2022/07/12 10:32:25;;;;;;;3.00;0.40;;;;;;;36.83;12.96;98959.53;4960479;28;20114;-72
2022/07/12 10:34:58;;;;;;;1.67;0.40;;;;;;;36.84;12.99;98958.41;4944464;28;20069;-71
2022/07/12 10:37:24;;;;;;;2.17;0.60;;;;;;;36.75;12.99;98960.09;4960418;28;20026;-71
2022/07/12 10:40:11;;;;;;;1.20;0.40;;;;;;;36.74;12.76;98958.50;4943815;28;20053;-71
2022/07/12 10:42:36;;;;;;;1.80;0.47;;;;;;;36.58;13.20;98944.19;4993812;28;20041;-71
2022/07/12 10:45:13;;;;;;;2.15;0.40;;;;;;;36.45;12.87;98953.78;4943065;28;20092;-71
2022/07/12 10:47:54;;;;;;;1.75;0.50;;;;;;;36.32;13.13;98954.44;4944270;28;20121;-71
2022/07/12 10:50:40;;;;;;;2.30;0.40;;;;;;;36.26;12.97;98952.81;4993538;28;20031;-71
2022/07/12 10:53:28;;;;;;;2.45;0.50;;;;;;;36.35;12.93;98956.56;4978681;28;20026;-73
2022/07/12 10:56:09;;;;;;;2.88;0.77;;;;;;;36.35;13.34;98956.56;4991966;28;20030;-71
2022/07/12 10:58:34;;;;;;;1.35;0.50;;;;;;;36.36;13.18;98956.28;4992386;28;20077;-73
2022/07/12 11:01:04;;;;;;;0.75;0.32;;;;;;;36.33;13.04;98947.91;4993194;28;20030;-72
2022/07/12 11:03:40;;;;;;;3.35;0.40;;;;;;;36.29;13.05;98949.56;4960505;28;20486;-72
2022/07/12 11:06:06;;;;;;;1.15;0.50;;;;;;;36.27;13.18;98943.59;4993136;28;20041;-72
2022/07/12 11:08:34;;;;;;;2.93;0.50;;;;;;;36.13;13.27;98946.09;4960099;28;20113;-72
2022/07/12 11:11:00;;;;;;;2.03;0.70;;;;;;;36.05;13.44;98936.63;4959925;28;20034;-72
2022/07/12 11:13:25;;;;;;;2.33;0.60;;;;;;;35.91;13.35;98933.69;4976199;28;20500;-73
2022/07/12 11:16:00;;;;;;;0.77;0.30;;;;;;;35.78;13.41;98947.91;4975782;28;20023;-73
2022/07/12 11:18:30;;;;;;;2.35;0.50;;;;;;;35.67;13.25;98941.66;4991729;28;20034;-73
2022/07/12 11:20:58;;;;;;;2.55;0.60;;;;;;;35.60;13.37;98941.97;4992926;28;20034;-72
2022/07/12 11:23:27;;;;;;;2.50;0.38;;;;;;;35.52;13.41;98942.53;4975556;28;20030;-72
2022/07/12 11:25:57;;;;;;;2.50;0.40;;;;;;;35.30;13.92;98934.72;4959791;28;20390;-73
2022/07/12 11:28:27;;;;;;;1.23;0.38;;;;;;;35.32;13.64;98935.25;4959264;28;20068;-73
2022/07/12 11:30:53;;;;;;;4.97;0.77;;;;;;;35.33;13.69;98943.13;4975826;28;20030;-72
2022/07/12 11:33:24;;;;;;;1.90;0.40;;;;;;;35.25;14.10;98940.97;4959345;28;20482;-71
2022/07/12 11:35:50;;;;;;;2.25;0.40;;;;;;;34.94;13.80;98938.28;4975303;28;20089;-71
2022/07/12 11:38:15;;;;;;;3.80;0.50;;;;;;;34.81;13.94;98929.88;4959808;28;20031;-73
2022/07/12 11:40:41;;;;;;;1.77;0.40;;;;;;;34.67;13.82;98927.69;4959168;28;20493;-72
2022/07/12 11:43:06;;;;;;;3.83;0.50;;;;;;;34.58;14.20;98927.41;4975821;28;20097;-72
2022/07/12 11:45:33;;;;;;;5.47;0.52;;;;;;;34.49;14.30;98934.47;4958689;28;20421;-74
2022/07/12 11:48:01;;;;;;;3.23;0.33;;;;;;;34.46;14.76;98936.88;4959371;28;20053;-71